sensor_id;sensor_type;location;lat;lon;timestamp;pressure;altitude;pressure_sealevel;temperature;humidity
10064;BME280;5071;52.360;13.134;2023-02-22T00:03:49;101236.44;;;6.83;100.00
10064;BME280;5071;52.360;13.134;2023-02-22T00:08:51;101236.38;;;6.77;100.00
10064;BME280;5071;52.360;13.134;2023-02-22T00:13:54;101236.38;;;6.77;100.00
10064;BME280;5071;52.360;13.134;2023-02-22T00:18:57;101231.97;;;6.77;100.00
10064;BME280;5071;52.360;13.134;2023-02-22T00:23:59;101238.97;;;6.72;100.00
10064;BME280;5071;52.360;13.134;2023-02-22T00:29:01;101234.50;;;6.67;100.00
10064;BME280;5071;52.360;13.134;2023-02-22T00:34:05;101232.72;;;6.66;100.00
10064;BME280;5071;52.360;13.134;2023-02-22T00:39:07;101241.53;;;6.68;100.00
10064;BME280;5071;52.360;13.134;2023-02-22T00:44:09;101237.19;;;6.68;100.00
10064;BME280;5071;52.360;13.134;2023-02-22T00:49:12;101227.47;;;6.66;100.00
10064;BME280;5071;52.360;13.134;2023-02-22T00:54:15;101233.66;;;6.69;100.00
10064;BME280;5071;52.360;13.134;2023-02-22T00:59:17;101228.38;;;6.69;100.00
10064;BME280;5071;52.360;13.134;2023-02-22T01:04:20;101226.41;;;6.51;100.00
10064;BME280;5071;52.360;13.134;2023-02-22T01:15:09;101218.81;;;6.07;100.00
10064;BME280;5071;52.360;13.134;2023-02-22T01:20:13;101219.28;;;5.81;100.00
10064;BME280;5071;52.360;13.134;2023-02-22T01:25:17;101222.41;;;5.54;100.00
10064;BME280;5071;52.360;13.134;2023-02-22T01:30:21;101210.63;;;5.32;100.00
10064;BME280;5071;52.360;13.134;2023-02-22T01:35:26;101215.63;;;5.17;100.00
10064;BME280;5071;52.360;13.134;2023-02-22T01:40:32;101215.34;;;5.00;100.00
10064;BME280;5071;52.360;13.134;2023-02-22T01:45:47;101215.94;;;4.85;100.00
10064;BME280;5071;52.360;13.134;2023-02-22T01:50:53;101213.06;;;4.73;100.00
10064;BME280;5071;52.360;13.134;2023-02-22T01:55:57;101204.84;;;4.56;100.00
10064;BME280;5071;52.360;13.134;2023-02-22T02:00:59;101206.19;;;4.34;100.00
10064;BME280;5071;52.360;13.134;2023-02-22T02:06:05;101208.47;;;4.18;100.00
10064;BME280;5071;52.360;13.134;2023-02-22T02:11:09;101210.34;;;4.22;100.00
10064;BME280;5071;52.360;13.134;2023-02-22T02:16:11;101200.47;;;4.12;100.00
10064;BME280;5071;52.360;13.134;2023-02-22T02:21:45;101207.50;;;4.13;100.00
10064;BME280;5071;52.360;13.134;2023-02-22T02:27:03;101207.63;;;4.19;100.00
10064;BME280;5071;52.360;13.134;2023-02-22T02:32:25;101206.19;;;4.34;100.00
10064;BME280;5071;52.360;13.134;2023-02-22T02:37:34;101203.13;;;4.56;100.00
10064;BME280;5071;52.360;13.134;2023-02-22T02:42:41;101199.75;;;4.63;100.00
10064;BME280;5071;52.360;13.134;2023-02-22T02:47:50;101184.97;;;4.70;100.00
10064;BME280;5071;52.360;13.134;2023-02-22T02:52:58;101191.22;;;4.75;100.00
10064;BME280;5071;52.360;13.134;2023-02-22T02:58:03;101191.34;;;4.83;100.00
10064;BME280;5071;52.360;13.134;2023-02-22T03:03:20;101185.25;;;4.85;100.00
10064;BME280;5071;52.360;13.134;2023-02-22T03:08:31;101193.34;;;4.96;100.00
10064;BME280;5071;52.360;13.134;2023-02-22T03:13:39;101183.81;;;5.03;100.00
10064;BME280;5071;52.360;13.134;2023-02-22T03:18:49;101179.47;;;5.06;100.00
10064;BME280;5071;52.360;13.134;2023-02-22T03:24:01;101174.28;;;5.10;100.00
10064;BME280;5071;52.360;13.134;2023-02-22T03:29:08;101179.72;;;5.20;100.00
10064;BME280;5071;52.360;13.134;2023-02-22T03:34:16;101180.72;;;5.25;100.00
10064;BME280;5071;52.360;13.134;2023-02-22T03:39:20;101173.75;;;5.31;100.00
10064;BME280;5071;52.360;13.134;2023-02-22T03:44:26;101168.44;;;5.28;100.00
10064;BME280;5071;52.360;13.134;2023-02-22T03:49:34;101162.28;;;5.27;100.00
10064;BME280;5071;52.360;13.134;2023-02-22T03:54:38;101180.94;;;5.41;100.00
10064;BME280;5071;52.360;13.134;2023-02-22T04:00:12;101173.03;;;5.39;100.00
10064;BME280;5071;52.360;13.134;2023-02-22T04:05:17;101180.09;;;5.43;100.00
10064;BME280;5071;52.360;13.134;2023-02-22T04:10:19;101176.66;;;5.49;100.00
10064;BME280;5071;52.360;13.134;2023-02-22T04:15:22;101179.22;;;5.43;100.00
10064;BME280;5071;52.360;13.134;2023-02-22T04:20:26;101176.72;;;5.52;100.00
10064;BME280;5071;52.360;13.134;2023-02-22T04:25:28;101183.78;;;5.55;100.00
10064;BME280;5071;52.360;13.134;2023-02-22T04:30:30;101182.97;;;5.59;100.00
10064;BME280;5071;52.360;13.134;2023-02-22T04:35:34;101182.09;;;5.60;100.00
10064;BME280;5071;52.360;13.134;2023-02-22T04:40:37;101171.56;;;5.60;100.00
10064;BME280;5071;52.360;13.134;2023-02-22T04:45:39;101182.09;;;5.60;100.00
10064;BME280;5071;52.360;13.134;2023-02-22T04:50:42;101172.47;;;5.62;100.00
10064;BME280;5071;52.360;13.134;2023-02-22T04:55:44;101167.13;;;5.57;100.00
10064;BME280;5071;52.360;13.134;2023-02-22T05:00:47;101171.53;;;5.58;100.00
10064;BME280;5071;52.360;13.134;2023-02-22T05:05:58;101162.81;;;5.59;100.00
10064;BME280;5071;52.360;13.134;2023-02-22T05:11:00;101161.94;;;5.62;100.00
10064;BME280;5071;52.360;13.134;2023-02-22T05:16:27;101152.38;;;5.67;100.00
10064;BME280;5071;52.360;13.134;2023-02-22T05:21:30;101159.44;;;5.71;100.00
10064;BME280;5071;52.360;13.134;2023-02-22T05:26:32;101159.47;;;5.74;100.00
10064;BME280;5071;52.360;13.134;2023-02-22T05:31:34;101155.16;;;5.76;100.00
10064;BME280;5071;52.360;13.134;2023-02-22T05:36:38;101154.25;;;5.77;100.00
10064;BME280;5071;52.360;13.134;2023-02-22T05:41:55;101149.94;;;5.82;100.00
10064;BME280;5071;52.360;13.134;2023-02-22T05:47:18;101159.66;;;5.87;100.00
10064;BME280;5071;52.360;13.134;2023-02-22T05:52:22;101162.25;;;5.85;100.00
10064;BME280;5071;52.360;13.134;2023-02-22T05:57:50;101166.72;;;5.88;100.00
10064;BME280;5071;52.360;13.134;2023-02-22T06:03:17;101170.25;;;5.90;100.00
10064;BME280;5071;52.360;13.134;2023-02-22T06:08:20;101172.88;;;5.90;100.00
10064;BME280;5071;52.360;13.134;2023-02-22T06:13:23;101180.78;;;5.90;100.00
10064;BME280;5071;52.360;13.134;2023-02-22T06:18:26;101176.53;;;5.98;100.00
10064;BME280;5071;52.360;13.134;2023-02-22T06:23:30;101179.25;;;6.02;100.00
10064;BME280;5071;52.360;13.134;2023-02-22T06:28:34;101184.50;;;6.01;100.00
10064;BME280;5071;52.360;13.134;2023-02-22T06:33:36;101178.34;;;6.03;100.00
10064;BME280;5071;52.360;13.134;2023-02-22T06:38:40;101192.47;;;6.07;100.00
10064;BME280;5071;52.360;13.134;2023-02-22T06:43:42;101191.69;;;6.17;100.00
10064;BME280;5071;52.360;13.134;2023-02-22T06:48:45;101198.75;;;6.18;100.00
10064;BME280;5071;52.360;13.134;2023-02-22T06:53:48;101210.97;;;6.13;100.00
10064;BME280;5071;52.360;13.134;2023-02-22T06:59:08;101211.22;;;6.32;100.00
10064;BME280;5071;52.360;13.134;2023-02-22T07:04:10;101216.56;;;6.35;100.00
10064;BME280;5071;52.360;13.134;2023-02-22T07:09:15;101216.78;;;6.53;100.00
10064;BME280;5071;52.360;13.134;2023-02-22T07:14:17;101217.69;;;6.57;100.00
10064;BME280;5071;52.360;13.134;2023-02-22T07:19:19;101220.31;;;6.55;100.00
10064;BME280;5071;52.360;13.134;2023-02-22T07:24:23;101211.63;;;6.63;100.00
10064;BME280;5071;52.360;13.134;2023-02-22T07:29:25;101215.16;;;6.68;100.00
10064;BME280;5071;52.360;13.134;2023-02-22T07:34:28;101213.28;;;6.56;100.00
10064;BME280;5071;52.360;13.134;2023-02-22T07:39:31;101219.47;;;6.58;100.00
10064;BME280;5071;52.360;13.134;2023-02-22T07:50:22;101223.06;;;6.65;100.00
10064;BME280;5071;52.360;13.134;2023-02-22T07:55:27;101218.84;;;6.82;100.00
10064;BME280;5071;52.360;13.134;2023-02-22T08:00:31;101212.72;;;6.86;100.00
10064;BME280;5071;52.360;13.134;2023-02-22T08:05:34;101220.69;;;6.92;100.00
10064;BME280;5071;52.360;13.134;2023-02-22T08:10:38;101221.84;;;7.17;100.00
10064;BME280;5071;52.360;13.134;2023-02-22T08:15:41;101222.75;;;7.21;100.00
10064;BME280;5071;52.360;13.134;2023-02-22T08:20:45;101218.47;;;7.37;100.00
10064;BME280;5071;52.360;13.134;2023-02-22T08:25:49;101221.97;;;7.33;99.99
10064;BME280;5071;52.360;13.134;2023-02-22T08:30:51;101223.75;;;7.37;99.70
10064;BME280;5071;52.360;13.134;2023-02-22T08:35:54;101215.91;;;7.45;98.34
10064;BME280;5071;52.360;13.134;2023-02-22T08:40:57;101217.66;;;7.44;98.06
10064;BME280;5071;52.360;13.134;2023-02-22T08:45:59;101216.78;;;7.47;97.62
10064;BME280;5071;52.360;13.134;2023-02-22T08:51:01;101212.47;;;7.55;97.60
10064;BME280;5071;52.360;13.134;2023-02-22T08:56:05;101217.91;;;7.73;96.76
10064;BME280;5071;52.360;13.134;2023-02-22T09:01:07;101211.75;;;7.81;95.42
10064;BME280;5071;52.360;13.134;2023-02-22T09:06:09;101209.19;;;7.90;94.58
10064;BME280;5071;52.360;13.134;2023-02-22T09:11:13;101206.69;;;8.17;93.80
10064;BME280;5071;52.360;13.134;2023-02-22T09:16:17;101204.13;;;8.30;93.63
10064;BME280;5071;52.360;13.134;2023-02-22T09:21:19;101205.91;;;8.40;91.94
10064;BME280;5071;52.360;13.134;2023-02-22T09:26:22;101211.25;;;8.43;92.07
10064;BME280;5071;52.360;13.134;2023-02-22T09:31:25;101209.50;;;8.45;91.29
10064;BME280;5071;52.360;13.134;2023-02-22T09:36:27;101207.66;;;8.35;90.55
10064;BME280;5071;52.360;13.134;2023-02-22T09:41:35;101202.47;;;8.50;90.07
10064;BME280;5071;52.360;13.134;2023-02-22T09:46:40;101199.81;;;8.53;89.08
10064;BME280;5071;52.360;13.134;2023-02-22T09:51:47;101197.22;;;8.66;87.63
10064;BME280;5071;52.360;13.134;2023-02-22T09:56:56;101188.38;;;8.67;86.95
10064;BME280;5071;52.360;13.134;2023-02-22T10:02:04;101184.91;;;8.97;86.06
10064;BME280;5071;52.360;13.134;2023-02-22T10:07:16;101179.66;;;9.19;85.96
10064;BME280;5071;52.360;13.134;2023-02-22T10:12:28;101190.22;;;9.02;84.73
10064;BME280;5071;52.360;13.134;2023-02-22T10:17:35;101179.66;;;9.11;84.45
10064;BME280;5071;52.360;13.134;2023-02-22T10:22:47;101170.81;;;9.40;84.43
10064;BME280;5071;52.360;13.134;2023-02-22T10:27:58;101176.09;;;9.61;82.85
10064;BME280;5071;52.360;13.134;2023-02-22T10:33:06;101176.06;;;9.86;81.48
10064;BME280;5071;52.360;13.134;2023-02-22T10:38:15;101179.50;;;10.12;81.87
10064;BME280;5071;52.360;13.134;2023-02-22T10:43:20;101174.28;;;9.88;81.32
10064;BME280;5071;52.360;13.134;2023-02-22T10:48:24;101172.56;;;9.59;82.23
10064;BME280;5071;52.360;13.134;2023-02-22T10:53:28;101161.94;;;9.62;83.96
10064;BME280;5071;52.360;13.134;2023-02-22T10:58:44;101169.88;;;9.68;82.97
10064;BME280;5071;52.360;13.134;2023-02-22T11:03:56;101162.81;;;9.63;83.14
10064;BME280;5071;52.360;13.134;2023-02-22T11:09:08;101159.28;;;9.71;82.52
10064;BME280;5071;52.360;13.134;2023-02-22T11:14:13;101158.41;;;9.72;82.27
10064;BME280;5071;52.360;13.134;2023-02-22T11:19:27;101165.50;;;9.61;82.22
10064;BME280;5071;52.360;13.134;2023-02-22T11:24:30;101157.50;;;9.81;81.28
10064;BME280;5071;52.360;13.134;2023-02-22T11:29:51;101155.75;;;9.68;82.25
10064;BME280;5071;52.360;13.134;2023-02-22T11:41:14;101150.50;;;9.45;81.13
10064;BME280;5071;52.360;13.134;2023-02-22T11:46:20;101138.13;;;9.54;81.38
10064;BME280;5071;52.360;13.134;2023-02-22T11:51:32;101129.28;;;9.63;80.12
10064;BME280;5071;52.360;13.134;2023-02-22T11:56:41;101126.63;;;9.60;79.93
10064;BME280;5071;52.360;13.134;2023-02-22T12:01:51;101116.03;;;9.60;80.21
10064;BME280;5071;52.360;13.134;2023-02-22T12:07:06;101108.91;;;9.81;79.91
10064;BME280;5071;52.360;13.134;2023-02-22T12:12:19;101109.75;;;9.95;78.83
10064;BME280;5071;52.360;13.134;2023-02-22T12:17:36;101105.34;;;9.85;78.68
10064;BME280;5071;52.360;13.134;2023-02-22T12:22:54;101104.38;;;10.09;78.58
10064;BME280;5071;52.360;13.134;2023-02-22T12:28:00;101112.34;;;10.01;78.05
10064;BME280;5071;52.360;13.134;2023-02-22T12:33:18;101109.78;;;9.77;77.60
10064;BME280;5071;52.360;13.134;2023-02-22T12:38:33;101105.38;;;9.80;77.49
10064;BME280;5071;52.360;13.134;2023-02-22T12:44:20;101096.47;;;9.92;77.53
10064;BME280;5071;52.360;13.134;2023-02-22T12:49:30;101107.06;;;10.04;77.38
10064;BME280;5071;52.360;13.134;2023-02-22T12:54:42;101097.25;;;10.19;76.66
10064;BME280;5071;52.360;13.134;2023-02-22T12:59:47;101098.09;;;10.24;75.85
10064;BME280;5071;52.360;13.134;2023-02-22T13:04:53;101099.97;;;10.06;76.11
10064;BME280;5071;52.360;13.134;2023-02-22T13:10:06;101095.50;;;10.13;76.13
10064;BME280;5071;52.360;13.134;2023-02-22T13:15:18;101089.31;;;10.12;76.54
10064;BME280;5071;52.360;13.134;2023-02-22T13:20:24;101089.28;;;10.19;76.09
10064;BME280;5071;52.360;13.134;2023-02-22T13:25:36;101089.31;;;10.11;75.47
10064;BME280;5071;52.360;13.134;2023-02-22T13:30:44;101079.53;;;10.31;74.82
10064;BME280;5071;52.360;13.134;2023-02-22T13:48:02;101075.03;;;10.40;73.47
10064;BME280;5071;52.360;13.134;2023-02-22T13:53:17;101073.31;;;10.28;74.30
10064;BME280;5071;52.360;13.134;2023-02-22T13:58:23;101076.84;;;10.30;74.62
10064;BME280;5071;52.360;13.134;2023-02-22T14:03:40;101067.88;;;10.56;74.45
10064;BME280;5071;52.360;13.134;2023-02-22T14:08:45;101066.13;;;10.50;73.87
10064;BME280;5071;52.360;13.134;2023-02-22T14:14:09;101056.38;;;10.52;74.08
10064;BME280;5071;52.360;13.134;2023-02-22T14:19:14;101069.81;;;10.30;73.95
10064;BME280;5071;52.360;13.134;2023-02-22T14:24:18;101065.41;;;10.19;75.04
10064;BME280;5071;52.360;13.134;2023-02-22T14:29:21;101054.88;;;10.05;75.49
10064;BME280;5071;52.360;13.134;2023-02-22T14:34:48;101061.00;;;10.19;75.62
10064;BME280;5071;52.360;13.134;2023-02-22T14:39:57;101054.88;;;10.03;75.24
10064;BME280;5071;52.360;13.134;2023-02-22T14:45:33;101046.94;;;10.00;75.63
10064;BME280;5071;52.360;13.134;2023-02-22T14:50:41;101045.19;;;10.02;76.29
10064;BME280;5071;52.360;13.134;2023-02-22T14:55:52;101042.41;;;10.22;75.63
10064;BME280;5071;52.360;13.134;2023-02-22T15:00:57;101030.84;;;10.34;74.01
10064;BME280;5071;52.360;13.134;2023-02-22T15:06:04;101030.84;;;10.29;74.12
10064;BME280;5071;52.360;13.134;2023-02-22T15:11:19;101025.72;;;10.00;74.47
10064;BME280;5071;52.360;13.134;2023-02-22T15:16:22;101031.06;;;9.94;75.50
10064;BME280;5071;52.360;13.134;2023-02-22T15:21:27;101022.34;;;9.70;76.39
10064;BME280;5071;52.360;13.134;2023-02-22T15:26:39;101016.22;;;9.54;77.12
10064;BME280;5071;52.360;13.134;2023-02-22T15:31:59;101020.66;;;9.43;76.66
10064;BME280;5071;52.360;13.134;2023-02-22T15:37:19;101026.88;;;9.27;78.16
10064;BME280;5071;52.360;13.134;2023-02-22T15:42:24;101016.34;;;9.11;78.70
10064;BME280;5071;52.360;13.134;2023-02-22T15:47:30;101011.94;;;8.97;78.06
10064;BME280;5071;52.360;13.134;2023-02-22T15:52:32;101000.50;;;8.78;79.02
10064;BME280;5071;52.360;13.134;2023-02-22T15:57:35;100996.09;;;8.69;79.35
10064;BME280;5071;52.360;13.134;2023-02-22T16:02:38;100997.88;;;8.51;79.91
10064;BME280;5071;52.360;13.134;2023-02-22T16:07:43;100998.72;;;8.41;80.37
10064;BME280;5071;52.360;13.134;2023-02-22T16:12:48;100993.41;;;8.29;80.72
10064;BME280;5071;52.360;13.134;2023-02-22T16:17:51;100989.00;;;8.18;81.36
10064;BME280;5071;52.360;13.134;2023-02-22T16:23:22;100994.25;;;8.06;82.40
10064;BME280;5071;52.360;13.134;2023-02-22T16:28:28;100997.75;;;7.94;83.02
10064;BME280;5071;52.360;13.134;2023-02-22T16:33:30;101004.78;;;7.88;83.39
10064;BME280;5071;52.360;13.134;2023-02-22T16:38:33;101008.25;;;7.74;84.38
10064;BME280;5071;52.360;13.134;2023-02-22T16:43:36;101008.25;;;7.68;84.61
10064;BME280;5071;52.360;13.134;2023-02-22T16:48:40;101002.94;;;7.62;85.10
10064;BME280;5071;52.360;13.134;2023-02-22T16:53:43;101007.31;;;7.54;85.61
10064;BME280;5071;52.360;13.134;2023-02-22T16:58:49;101002.84;;;7.47;85.69
10064;BME280;5071;52.360;13.134;2023-02-22T17:03:51;101008.13;;;7.42;86.51
10064;BME280;5071;52.360;13.134;2023-02-22T17:08:55;101000.19;;;7.39;86.25
10064;BME280;5071;52.360;13.134;2023-02-22T17:13:59;100997.53;;;7.28;86.75
10064;BME280;5071;52.360;13.134;2023-02-22T17:19:01;101002.81;;;7.28;86.73
10064;BME280;5071;52.360;13.134;2023-02-22T17:24:03;100995.72;;;7.21;87.28
10064;BME280;5071;52.360;13.134;2023-02-22T17:29:07;100988.63;;;7.14;87.55
10064;BME280;5071;52.360;13.134;2023-02-22T17:34:09;100993.81;;;7.01;87.76
10064;BME280;5071;52.360;13.134;2023-02-22T17:39:11;100995.56;;;6.96;87.85
10064;BME280;5071;52.360;13.134;2023-02-22T17:44:14;100994.66;;;6.93;88.44
10064;BME280;5071;52.360;13.134;2023-02-22T17:49:16;100988.44;;;6.86;88.54
10064;BME280;5071;52.360;13.134;2023-02-22T17:54:18;100995.44;;;6.81;88.86
10064;BME280;5071;52.360;13.134;2023-02-22T17:59:22;100995.41;;;6.75;88.98
10064;BME280;5071;52.360;13.134;2023-02-22T18:04:24;100991.00;;;6.75;89.12
10064;BME280;5071;52.360;13.134;2023-02-22T18:09:27;100995.34;;;6.66;89.65
10064;BME280;5071;52.360;13.134;2023-02-22T18:14:30;100994.41;;;6.57;89.92
10064;BME280;5071;52.360;13.134;2023-02-22T18:19:32;100996.09;;;6.51;89.92
10064;BME280;5071;52.360;13.134;2023-02-22T18:24:33;100994.25;;;6.40;90.53
10064;BME280;5071;52.360;13.134;2023-02-22T18:29:37;100991.56;;;6.36;90.49
10064;BME280;5071;52.360;13.134;2023-02-22T18:34:39;100999.44;;;6.30;90.93
10064;BME280;5071;52.360;13.134;2023-02-22T18:39:41;100995.84;;;6.23;91.19
10064;BME280;5071;52.360;13.134;2023-02-22T18:44:44;100987.03;;;6.21;91.39
10064;BME280;5071;52.360;13.134;2023-02-22T18:49:46;100984.41;;;6.19;91.20
10064;BME280;5071;52.360;13.134;2023-02-22T18:54:49;100970.28;;;6.14;91.44
10064;BME280;5071;52.360;13.134;2023-02-22T18:59:52;100971.16;;;6.13;91.20
10064;BME280;5071;52.360;13.134;2023-02-22T19:04:54;100964.13;;;6.12;91.33
10064;BME280;5071;52.360;13.134;2023-02-22T19:09:57;100959.63;;;6.02;91.01
10064;BME280;5071;52.360;13.134;2023-02-22T19:15:03;100970.25;;;6.08;91.34
10064;BME280;5071;52.360;13.134;2023-02-22T19:20:44;100968.41;;;6.01;91.23
10064;BME280;5071;52.360;13.134;2023-02-22T19:25:46;100970.16;;;6.00;90.92
10064;BME280;5071;52.360;13.134;2023-02-22T19:37:01;100968.28;;;5.95;90.65
10064;BME280;5071;52.360;13.134;2023-02-22T19:42:03;100962.22;;;5.96;90.60
10064;BME280;5071;52.360;13.134;2023-02-22T19:47:08;100963.16;;;6.01;90.13
10064;BME280;5071;52.360;13.134;2023-02-22T19:52:11;100957.88;;;6.04;89.53
10064;BME280;5071;52.360;13.134;2023-02-22T19:57:26;100959.66;;;6.05;88.90
10064;BME280;5071;52.360;13.134;2023-02-22T20:02:40;100955.28;;;6.06;88.63
10064;BME280;5071;52.360;13.134;2023-02-22T20:07:44;100965.03;;;6.17;87.76
10064;BME280;5071;52.360;13.134;2023-02-22T20:12:46;100967.72;;;6.20;87.31
10064;BME280;5071;52.360;13.134;2023-02-22T20:18:28;100968.59;;;6.19;87.16
10064;BME280;5071;52.360;13.134;2023-02-22T20:23:33;100970.31;;;6.17;87.05
10064;BME280;5071;52.360;13.134;2023-02-22T20:29:15;100959.75;;;6.17;86.60
10064;BME280;5071;52.360;13.134;2023-02-22T20:40:03;100966.78;;;6.14;86.60
10064;BME280;5071;52.360;13.134;2023-02-22T20:45:24;100966.63;;;6.00;86.82
10064;BME280;5071;52.360;13.134;2023-02-22T20:50:26;100962.16;;;5.94;87.25
10064;BME280;5071;52.360;13.134;2023-02-22T21:02:03;100964.63;;;5.77;87.13
10064;BME280;5071;52.360;13.134;2023-02-22T21:07:05;100964.63;;;5.77;86.93
10064;BME280;5071;52.360;13.134;2023-02-22T21:12:14;100958.38;;;5.68;87.55
10064;BME280;5071;52.360;13.134;2023-02-22T21:18:36;100960.88;;;5.57;87.69
10064;BME280;5071;52.360;13.134;2023-02-22T21:23:57;100958.13;;;5.48;88.03
10064;BME280;5071;52.360;13.134;2023-02-22T21:29:17;100959.78;;;5.39;88.62
10064;BME280;5071;52.360;13.134;2023-02-22T21:34:51;100960.56;;;5.32;88.46
10064;BME280;5071;52.360;13.134;2023-02-22T21:39:53;100939.53;;;5.32;88.53
10064;BME280;5071;52.360;13.134;2023-02-22T21:44:55;100941.25;;;5.30;88.62
10064;BME280;5071;52.360;13.134;2023-02-22T21:50:39;100942.22;;;5.38;87.66
10064;BME280;5071;52.360;13.134;2023-02-22T22:02:02;100935.69;;;5.09;88.72
10064;BME280;5071;52.360;13.134;2023-02-22T22:07:12;100931.31;;;5.07;88.95
10064;BME280;5071;52.360;13.134;2023-02-22T22:12:29;100932.03;;;4.97;88.77
10064;BME280;5071;52.360;13.134;2023-02-22T22:18:04;100926.72;;;4.91;88.79
10064;BME280;5071;52.360;13.134;2023-02-22T22:23:07;100923.25;;;4.95;88.47
10064;BME280;5071;52.360;13.134;2023-02-22T22:28:10;100930.25;;;4.93;88.33
10064;BME280;5071;52.360;13.134;2023-02-22T22:33:27;100929.22;;;4.82;88.12
10064;BME280;5071;52.360;13.134;2023-02-22T22:38:31;100923.81;;;4.73;88.71
10064;BME280;5071;52.360;13.134;2023-02-22T22:43:36;100920.41;;;4.80;88.14
10064;BME280;5071;52.360;13.134;2023-02-22T22:48:41;100917.75;;;4.75;88.03
10064;BME280;5071;52.360;13.134;2023-02-22T23:06:57;100905.13;;;4.51;88.66
10064;BME280;5071;52.360;13.134;2023-02-22T23:12:11;100901.50;;;4.44;88.87
10064;BME280;5071;52.360;13.134;2023-02-22T23:17:17;100903.19;;;4.41;89.25
10064;BME280;5071;52.360;13.134;2023-02-22T23:22:40;100897.94;;;4.39;89.52
10064;BME280;5071;52.360;13.134;2023-02-22T23:27:43;100896.19;;;4.40;88.97
10064;BME280;5071;52.360;13.134;2023-02-22T23:32:55;100893.50;;;4.37;89.42
10064;BME280;5071;52.360;13.134;2023-02-22T23:38:06;100896.94;;;4.33;89.66
10064;BME280;5071;52.360;13.134;2023-02-22T23:43:09;100900.41;;;4.30;89.72
10064;BME280;5071;52.360;13.134;2023-02-22T23:48:12;100889.06;;;4.33;89.26
10064;BME280;5071;52.360;13.134;2023-02-22T23:53:14;100892.50;;;4.28;89.76
10064;BME280;5071;52.360;13.134;2023-02-22T23:58:29;100882.91;;;4.31;89.78
